Time;durP1;ratioP1;P1;durP2;ratioP2;P2;SDS_P1;SDS_P2;PMS_P1;PMS_P2;Temp;Humidity;BMP_temperature;BMP_pressure;BME280_temperature;BME280_humidity;BME280_pressure;Samples;Min_cycle;Max_cycle;Signal;HPM_P1;HPM_P2
2021/03/02 00:01:48;;;;;;;8.30;5.87;;;;;;;;;;4866092;28;177094;-77
2021/03/02 00:04:15;;;;;;;9.77;6.53;;;;;;;;;;4867988;28;179185;-77
2021/03/02 00:06:42;;;;;;;9.90;6.77;;;;;;;;;;4852484;28;178119;-77
2021/03/02 00:09:09;;;;;;;9.50;7.13;;;;;;;;;;4854331;28;181300;-77
2021/03/02 00:11:43;;;;;;;9.47;6.30;;;;;;;;;;4864546;28;178964;-77
2021/03/02 00:14:10;;;;;;;9.53;7.00;;;;;;;;;;4851942;28;180314;-77
2021/03/02 00:16:38;;;;;;;11.17;6.93;;;;;;;;;;4855556;28;179193;-77
2021/03/02 00:19:09;;;;;;;9.77;6.47;;;;;;;;;;4852495;28;178788;-77
2021/03/02 00:21:40;;;;;;;10.53;6.23;;;;;;;;;;4852200;28;177848;-78
2021/03/02 00:24:10;;;;;;;8.20;5.90;;;;;;;;;;4851416;28;179416;-78
2021/03/02 00:26:38;;;;;;;14.90;6.83;;;;;;;;;;4852037;28;177775;-78
2021/03/02 00:29:05;;;;;;;8.20;5.63;;;;;;;;;;4851837;28;178509;-78
2021/03/02 00:31:32;;;;;;;11.90;6.17;;;;;;;;;;4851548;28;178545;-78
2021/03/02 00:33:59;;;;;;;10.03;6.07;;;;;;;;;;4860368;28;182440;-78
2021/03/02 00:36:26;;;;;;;13.33;6.50;;;;;;;;;;4851283;28;181519;-78
2021/03/02 00:38:53;;;;;;;13.60;7.03;;;;;;;;;;4852198;28;178405;-78
2021/03/02 00:41:22;;;;;;;12.40;6.67;;;;;;;;;;4852832;28;179028;-78
2021/03/02 00:43:53;;;;;;;10.93;6.40;;;;;;;;;;4853866;28;179554;-78
2021/03/02 00:46:21;;;;;;;9.60;7.00;;;;;;;;;;4859482;28;178217;-78
2021/03/02 00:48:48;;;;;;;9.63;6.37;;;;;;;;;;4886218;28;178899;-78
2021/03/02 00:51:15;;;;;;;12.20;7.13;;;;;;;;;;4862113;28;176502;-78
2021/03/02 00:53:43;;;;;;;10.67;7.00;;;;;;;;;;4849940;28;182989;-78
2021/03/02 00:56:09;;;;;;;12.13;8.43;;;;;;;;;;4867401;28;178049;-78
2021/03/02 00:58:37;;;;;;;10.60;7.73;;;;;;;;;;4862120;28;181354;-78
2021/03/02 01:01:04;;;;;;;12.33;7.33;;;;;;;;;;4852738;28;178081;-78
2021/03/02 01:03:31;;;;;;;12.10;8.17;;;;;;;;;;4868982;28;182056;-78
2021/03/02 01:05:58;;;;;;;13.60;8.97;;;;;;;;;;4870709;28;178144;-78
2021/03/02 01:08:27;;;;;;;14.20;9.20;;;;;;;;;;4866307;28;177974;-78
2021/03/02 01:10:56;;;;;;;13.40;10.03;;;;;;;;;;4849939;28;177973;-79
2021/03/02 01:13:28;;;;;;;16.57;9.87;;;;;;;;;;4865118;28;182078;-79
2021/03/02 01:15:55;;;;;;;14.83;9.97;;;;;;;;;;4868726;28;179403;-79
2021/03/02 01:18:22;;;;;;;19.40;11.67;;;;;;;;;;4850949;28;178475;-79
2021/03/02 01:20:48;;;;;;;16.20;10.13;;;;;;;;;;4850011;28;178380;-79
2021/03/02 01:23:15;;;;;;;14.10;9.80;;;;;;;;;;4847576;28;182496;-78
2021/03/02 01:25:42;;;;;;;23.77;11.37;;;;;;;;;;4849041;28;182661;-78
2021/03/02 01:28:09;;;;;;;17.60;10.50;;;;;;;;;;4863843;28;178406;-79
2021/03/02 01:30:36;;;;;;;25.17;12.37;;;;;;;;;;4850356;28;178551;-79
2021/03/02 01:33:03;;;;;;;22.50;12.23;;;;;;;;;;4849542;28;178797;-79
2021/03/02 01:35:30;;;;;;;26.13;13.80;;;;;;;;;;4849548;28;177940;-79
2021/03/02 01:37:56;;;;;;;24.87;13.33;;;;;;;;;;4853312;28;177925;-79
2021/03/02 01:40:23;;;;;;;26.20;13.93;;;;;;;;;;4854192;28;178127;-78
2021/03/02 01:42:50;;;;;;;37.60;13.90;;;;;;;;;;4849605;28;180570;-78
2021/03/02 01:45:18;;;;;;;35.57;14.00;;;;;;;;;;4849175;28;178210;-78
2021/03/02 01:47:51;;;;;;;90.80;16.43;;;;;;;;;;4848124;28;181386;-79
2021/03/02 01:50:19;;;;;;;21.80;13.07;;;;;;;;;;4850506;28;178314;-78
2021/03/02 01:52:45;;;;;;;183.77;19.13;;;;;;;;;;4863264;28;178546;-79
2021/03/02 01:55:14;;;;;;;37.67;13.70;;;;;;;;;;4863540;28;178456;-79
2021/03/02 01:57:41;;;;;;;167.37;19.33;;;;;;;;;;4849687;28;178368;-79
2021/03/02 02:00:12;;;;;;;49.50;14.20;;;;;;;;;;4849788;28;177884;-79
2021/03/02 02:02:40;;;;;;;100.47;16.77;;;;;;;;;;4848685;28;181331;-79
2021/03/02 02:05:13;;;;;;;78.03;15.07;;;;;;;;;;4858721;28;179225;-78
2021/03/02 02:07:48;;;;;;;92.23;14.43;;;;;;;;;;4866898;28;178249;-78
2021/03/02 02:10:36;;;;;;;91.33;15.53;;;;;;;;;;4866260;28;178167;-79
2021/03/02 02:13:13;;;;;;;79.70;14.27;;;;;;;;;;4855433;28;182686;-79
2021/03/02 02:15:41;;;;;;;22.07;11.93;;;;;;;;;;4849482;28;181085;-79
2021/03/02 02:18:17;;;;;;;66.20;14.17;;;;;;;;;;4850295;28;177914;-79
2021/03/02 02:20:59;;;;;;;38.87;13.10;;;;;;;;;;4849993;28;179370;-78
2021/03/02 02:23:35;;;;;;;50.13;15.00;;;;;;;;;;4894241;28;179919;-79
2021/03/02 02:26:05;;;;;;;20.57;13.00;;;;;;;;;;4857594;28;179084;-79
2021/03/02 02:28:33;;;;;;;42.10;12.57;;;;;;;;;;4853577;28;180125;-79
2021/03/02 02:31:02;;;;;;;45.43;13.30;;;;;;;;;;4853749;28;177500;-78
2021/03/02 02:33:32;;;;;;;31.93;12.00;;;;;;;;;;4853653;28;180025;-78
2021/03/02 02:36:00;;;;;;;31.13;12.63;;;;;;;;;;4852391;28;177928;-78
2021/03/02 02:38:28;;;;;;;32.23;13.30;;;;;;;;;;4851019;28;181349;-78
2021/03/02 02:40:55;;;;;;;28.70;12.67;;;;;;;;;;4860240;28;180205;-78
2021/03/02 02:43:22;;;;;;;18.33;11.17;;;;;;;;;;4857478;28;179960;-78
2021/03/02 02:45:50;;;;;;;23.37;13.47;;;;;;;;;;4851727;28;179036;-78
2021/03/02 02:48:17;;;;;;;25.53;12.83;;;;;;;;;;4852471;28;178654;-78
2021/03/02 02:50:45;;;;;;;26.03;12.27;;;;;;;;;;4853102;28;178465;-78
2021/03/02 02:53:13;;;;;;;20.13;12.03;;;;;;;;;;4851782;28;179956;-78
2021/03/02 02:55:44;;;;;;;20.53;12.07;;;;;;;;;;4852969;28;178783;-78
2021/03/02 02:58:13;;;;;;;22.57;13.40;;;;;;;;;;4853173;28;178683;-78
2021/03/02 03:00:41;;;;;;;39.57;13.07;;;;;;;;;;4853494;28;178987;-78
2021/03/02 03:03:09;;;;;;;31.90;11.93;;;;;;;;;;4850574;28;182818;-78
2021/03/02 03:05:38;;;;;;;51.00;12.27;;;;;;;;;;4851697;28;181912;-78
2021/03/02 03:08:17;;;;;;;28.27;12.07;;;;;;;;;;4887220;28;180254;-78
2021/03/02 03:10:44;;;;;;;64.97;13.37;;;;;;;;;;4871308;28;178319;-78
2021/03/02 03:13:15;;;;;;;21.13;11.60;;;;;;;;;;4860895;28;181977;-78
2021/03/02 03:15:45;;;;;;;26.63;11.40;;;;;;;;;;4856128;28;177907;-78
2021/03/02 03:18:13;;;;;;;34.23;12.40;;;;;;;;;;4870688;28;177762;-78
2021/03/02 03:20:40;;;;;;;37.13;12.80;;;;;;;;;;4872324;28;176817;-78
2021/03/02 03:23:08;;;;;;;22.40;10.10;;;;;;;;;;4870404;28;179841;-78
2021/03/02 03:25:35;;;;;;;30.53;10.47;;;;;;;;;;4860073;28;178410;-78
2021/03/02 03:28:04;;;;;;;52.27;12.80;;;;;;;;;;4850216;28;182809;-78
2021/03/02 03:30:32;;;;;;;25.40;11.43;;;;;;;;;;4852173;28;178888;-78
2021/03/02 03:33:00;;;;;;;52.87;13.13;;;;;;;;;;4867326;28;180508;-78
2021/03/02 03:35:27;;;;;;;17.90;10.80;;;;;;;;;;4856149;28;178675;-78
2021/03/02 03:37:53;;;;;;;18.80;9.87;;;;;;;;;;4858195;28;177924;-78
2021/03/02 03:40:20;;;;;;;40.10;11.47;;;;;;;;;;4871723;28;178260;-78
2021/03/02 03:42:47;;;;;;;76.50;13.20;;;;;;;;;;4866562;28;179248;-78
2021/03/02 03:45:14;;;;;;;76.03;13.20;;;;;;;;;;4852032;28;178409;-78
2021/03/02 03:47:41;;;;;;;49.07;14.20;;;;;;;;;;4864083;28;179110;-78
2021/03/02 03:50:09;;;;;;;45.17;13.10;;;;;;;;;;4871061;28;178308;-77
2021/03/02 03:52:39;;;;;;;77.83;13.93;;;;;;;;;;4865905;28;183378;-78
2021/03/02 03:55:07;;;;;;;87.97;13.40;;;;;;;;;;4870088;28;181093;-78
2021/03/02 03:57:34;;;;;;;157.37;16.77;;;;;;;;;;4871076;28;179219;-78
2021/03/02 04:00:01;;;;;;;29.07;11.60;;;;;;;;;;4870772;28;178599;-78
2021/03/02 04:02:28;;;;;;;43.53;11.50;;;;;;;;;;4869165;28;182301;-78
2021/03/02 04:04:56;;;;;;;68.23;13.03;;;;;;;;;;4870164;28;178435;-78
2021/03/02 04:07:23;;;;;;;123.70;12.90;;;;;;;;;;4870979;28;177781;-78
2021/03/02 04:09:50;;;;;;;92.90;12.80;;;;;;;;;;4871078;28;177192;-78
2021/03/02 04:12:16;;;;;;;97.50;13.37;;;;;;;;;;4870039;28;179244;-78
2021/03/02 04:14:43;;;;;;;57.63;12.10;;;;;;;;;;4870481;28;178968;-78
2021/03/02 04:17:10;;;;;;;33.87;11.80;;;;;;;;;;4859506;28;181787;-78
2021/03/02 04:19:38;;;;;;;49.13;12.50;;;;;;;;;;4851374;28;178264;-78
2021/03/02 04:22:05;;;;;;;67.03;13.43;;;;;;;;;;4861177;28;179409;-79
2021/03/02 04:24:31;;;;;;;33.50;12.40;;;;;;;;;;4869145;28;178469;-78
2021/03/02 04:26:58;;;;;;;54.23;13.10;;;;;;;;;;4866135;28;178242;-79
2021/03/02 04:29:25;;;;;;;20.37;11.53;;;;;;;;;;4851319;28;178043;-79
2021/03/02 04:31:51;;;;;;;18.67;12.10;;;;;;;;;;4854284;28;178196;-78
2021/03/02 04:34:18;;;;;;;21.33;12.23;;;;;;;;;;4851260;28;177797;-79
2021/03/02 04:36:45;;;;;;;21.50;11.93;;;;;;;;;;4851054;28;177959;-79
2021/03/02 04:39:12;;;;;;;22.30;10.50;;;;;;;;;;4850892;28;178498;-79
2021/03/02 04:41:39;;;;;;;16.43;11.30;;;;;;;;;;4862143;28;183817;-79
2021/03/02 04:44:05;;;;;;;19.23;10.80;;;;;;;;;;4850336;28;181566;-79
2021/03/02 04:46:32;;;;;;;15.47;10.03;;;;;;;;;;4857304;28;177971;-79
2021/03/02 04:48:59;;;;;;;23.43;11.33;;;;;;;;;;4865904;28;178019;-79
2021/03/02 04:51:26;;;;;;;17.47;10.80;;;;;;;;;;4863614;28;180185;-79
2021/03/02 04:53:52;;;;;;;15.47;10.27;;;;;;;;;;4860169;28;178494;-79
2021/03/02 04:56:19;;;;;;;22.30;12.37;;;;;;;;;;4864566;28;178046;-78
2021/03/02 04:58:46;;;;;;;19.73;11.30;;;;;;;;;;4851870;28;180300;-79
2021/03/02 05:01:12;;;;;;;54.43;14.77;;;;;;;;;;4855226;28;180281;-78
2021/03/02 05:03:42;;;;;;;29.20;12.87;;;;;;;;;;4868185;28;178449;-78
2021/03/02 05:06:08;;;;;;;33.73;13.20;;;;;;;;;;4850108;28;182054;-78
2021/03/02 05:08:35;;;;;;;29.13;11.53;;;;;;;;;;4858806;28;179057;-79
2021/03/02 05:11:02;;;;;;;36.10;11.53;;;;;;;;;;4852685;28;179074;-79
2021/03/02 05:13:29;;;;;;;36.40;12.00;;;;;;;;;;4856172;28;179562;-78
2021/03/02 05:16:10;;;;;;;50.63;12.10;;;;;;;;;;4850567;28;177825;-78
2021/03/02 05:18:37;;;;;;;29.23;12.17;;;;;;;;;;4850522;28;177992;-79
2021/03/02 05:21:04;;;;;;;26.53;11.47;;;;;;;;;;4857830;28;179416;-79
2021/03/02 05:23:31;;;;;;;20.53;11.53;;;;;;;;;;4849837;28;178469;-79
2021/03/02 05:25:58;;;;;;;17.90;9.40;;;;;;;;;;4849977;28;178416;-79
2021/03/02 05:28:25;;;;;;;16.83;10.43;;;;;;;;;;4864555;28;179853;-78
2021/03/02 05:30:52;;;;;;;17.93;8.60;;;;;;;;;;4853512;28;182605;-79
2021/03/02 05:33:19;;;;;;;16.37;9.70;;;;;;;;;;4875939;28;184264;-78
2021/03/02 05:35:46;;;;;;;16.70;8.83;;;;;;;;;;4868299;28;178386;-79
2021/03/02 05:38:13;;;;;;;12.90;8.90;;;;;;;;;;4870648;28;177892;-79
2021/03/02 05:40:40;;;;;;;15.37;9.63;;;;;;;;;;4870324;28;178737;-79
2021/03/02 05:43:08;;;;;;;13.63;9.40;;;;;;;;;;4870229;28;177782;-78
2021/03/02 05:45:35;;;;;;;14.20;9.70;;;;;;;;;;4870364;28;177965;-79
2021/03/02 05:48:05;;;;;;;17.90;8.97;;;;;;;;;;4871178;28;176555;-78
2021/03/02 05:50:32;;;;;;;16.30;8.23;;;;;;;;;;4870025;28;179800;-78
2021/03/02 05:53:01;;;;;;;26.87;7.50;;;;;;;;;;4869858;28;178693;-78
2021/03/02 05:55:28;;;;;;;33.50;9.10;;;;;;;;;;4868721;28;181161;-78
2021/03/02 05:57:56;;;;;;;16.00;7.93;;;;;;;;;;4860161;28;178672;-78
2021/03/02 06:00:23;;;;;;;16.43;7.87;;;;;;;;;;4874466;28;179208;-77
2021/03/02 06:02:50;;;;;;;28.23;8.13;;;;;;;;;;4854796;28;179188;-77
2021/03/02 06:05:17;;;;;;;19.30;8.73;;;;;;;;;;4851480;28;177852;-77
2021/03/02 06:07:44;;;;;;;46.90;10.73;;;;;;;;;;4851977;28;179178;-77
2021/03/02 06:10:11;;;;;;;24.23;10.03;;;;;;;;;;4850616;28;179730;-77
2021/03/02 06:12:50;;;;;;;20.63;10.83;;;;;;;;;;4861128;28;180220;-78
2021/03/02 06:15:21;;;;;;;29.13;10.63;;;;;;;;;;4850351;28;178237;-77
2021/03/02 06:18:08;;;;;;;17.40;9.90;;;;;;;;;;4850112;28;178394;-77
2021/03/02 06:20:35;;;;;;;34.73;9.33;;;;;;;;;;4854436;28;182593;-77
2021/03/02 06:23:18;;;;;;;26.83;8.63;;;;;;;;;;4867827;28;181035;-77
2021/03/02 06:25:46;;;;;;;36.23;8.90;;;;;;;;;;4874813;28;178202;-77
2021/03/02 06:28:12;;;;;;;28.97;9.40;;;;;;;;;;4854234;28;178604;-77
2021/03/02 06:30:39;;;;;;;32.37;9.07;;;;;;;;;;4867429;28;179604;-78
2021/03/02 06:33:19;;;;;;;60.17;9.97;;;;;;;;;;4876919;28;178656;-77
2021/03/02 06:35:46;;;;;;;15.50;7.77;;;;;;;;;;4875720;28;180144;-78
2021/03/02 06:38:26;;;;;;;54.33;10.47;;;;;;;;;;4869815;28;176486;-77
2021/03/02 06:40:52;;;;;;;19.30;8.53;;;;;;;;;;4869210;28;179261;-78
2021/03/02 06:43:35;;;;;;;40.73;8.70;;;;;;;;;;4869232;28;178299;-78
2021/03/02 06:46:04;;;;;;;35.47;9.13;;;;;;;;;;4863203;28;181719;-78
2021/03/02 06:48:32;;;;;;;89.73;10.20;;;;;;;;;;4856346;28;178588;-77
2021/03/02 06:50:59;;;;;;;75.33;8.77;;;;;;;;;;4860743;28;179167;-78
2021/03/02 06:53:26;;;;;;;75.27;10.33;;;;;;;;;;4850687;28;178468;-78
2021/03/02 06:55:53;;;;;;;96.10;9.97;;;;;;;;;;4865998;28;178756;-78
2021/03/02 06:58:24;;;;;;;104.00;10.30;;;;;;;;;;4872863;28;178014;-78
2021/03/02 07:00:54;;;;;;;93.70;9.50;;;;;;;;;;4861550;28;180524;-79
2021/03/02 07:03:31;;;;;;;119.30;10.20;;;;;;;;;;4860534;28;178906;-76
2021/03/02 07:06:03;;;;;;;82.47;10.00;;;;;;;;;;4867090;28;178404;-77
2021/03/02 07:08:30;;;;;;;79.00;10.33;;;;;;;;;;4868355;28;177977;-76
2021/03/02 07:10:58;;;;;;;120.27;10.70;;;;;;;;;;4865603;28;183581;-76
2021/03/02 07:13:25;;;;;;;56.17;7.90;;;;;;;;;;4867231;28;180915;-79
2021/03/02 07:15:52;;;;;;;91.33;10.33;;;;;;;;;;4857334;28;178254;-76
2021/03/02 07:18:21;;;;;;;125.03;10.47;;;;;;;;;;4850153;28;179317;-76
2021/03/02 07:20:50;;;;;;;24.97;6.97;;;;;;;;;;4858539;28;179976;-76
2021/03/02 07:23:19;;;;;;;109.47;9.73;;;;;;;;;;4866865;28;181074;-75
2021/03/02 07:25:48;;;;;;;29.17;6.80;;;;;;;;;;4868032;28;178869;-76
2021/03/02 07:28:16;;;;;;;86.43;8.30;;;;;;;;;;4869672;28;178616;-76
2021/03/02 07:30:45;;;;;;;125.73;11.37;;;;;;;;;;4881084;28;178180;-76
2021/03/02 07:33:14;;;;;;;52.13;8.20;;;;;;;;;;4886648;28;178354;-75
2021/03/02 07:35:41;;;;;;;11.27;6.30;;;;;;;;;;4882788;28;182341;-75
2021/03/02 07:38:16;;;;;;;36.23;6.80;;;;;;;;;;4882366;28;178555;-75
2021/03/02 07:40:50;;;;;;;164.30;11.17;;;;;;;;;;4888047;28;180412;-75
2021/03/02 07:43:28;;;;;;;70.80;7.73;;;;;;;;;;4882965;28;178267;-74
2021/03/02 07:45:56;;;;;;;11.40;5.50;;;;;;;;;;4887030;28;179027;-75
2021/03/02 07:48:33;;;;;;;28.00;8.43;;;;;;;;;;4888067;28;178434;-75
2021/03/02 07:51:17;;;;;;;46.30;8.20;;;;;;;;;;4887693;28;180494;-75
2021/03/02 07:53:44;;;;;;;74.67;10.87;;;;;;;;;;4885992;28;178651;-75
2021/03/02 07:56:20;;;;;;;14.37;8.20;;;;;;;;;;4861332;28;178766;-75
2021/03/02 07:59:05;;;;;;;30.60;9.27;;;;;;;;;;4864849;28;178299;-75
2021/03/02 08:01:32;;;;;;;26.03;7.67;;;;;;;;;;4867035;28;183481;-75
2021/03/02 08:04:15;;;;;;;63.77;9.17;;;;;;;;;;4871095;28;180826;-74
2021/03/02 08:06:42;;;;;;;29.27;7.77;;;;;;;;;;4871230;28;177974;-74
2021/03/02 08:09:21;;;;;;;167.97;11.63;;;;;;;;;;4871894;28;178543;-74
2021/03/02 08:11:48;;;;;;;62.90;8.17;;;;;;;;;;4869525;28;178857;-73
2021/03/02 08:14:18;;;;;;;45.80;10.00;;;;;;;;;;4871469;28;178472;-73
2021/03/02 08:16:52;;;;;;;80.10;9.37;;;;;;;;;;4870599;28;177761;-74
2021/03/02 08:19:37;;;;;;;180.93;11.97;;;;;;;;;;4872651;28;176525;-74
2021/03/02 08:22:20;;;;;;;235.70;13.03;;;;;;;;;;4869035;28;179710;-74
2021/03/02 08:24:50;;;;;;;72.40;8.00;;;;;;;;;;4869160;28;178891;-73
2021/03/02 08:27:17;;;;;;;46.40;6.17;;;;;;;;;;4869545;28;181484;-74
2021/03/02 08:29:48;;;;;;;12.60;5.97;;;;;;;;;;4870702;28;177878;-73
2021/03/02 08:32:15;;;;;;;93.43;8.17;;;;;;;;;;4870575;28;178924;-73
2021/03/02 08:34:42;;;;;;;92.37;7.50;;;;;;;;;;4870165;28;178501;-73
2021/03/02 08:37:09;;;;;;;33.90;6.47;;;;;;;;;;4871626;28;179228;-73
2021/03/02 08:39:36;;;;;;;17.93;7.23;;;;;;;;;;4870849;28;177938;-73
2021/03/02 08:42:07;;;;;;;71.90;8.20;;;;;;;;;;4870693;28;179196;-73
2021/03/02 08:44:34;;;;;;;17.37;6.50;;;;;;;;;;4871649;28;178258;-74
2021/03/02 08:47:01;;;;;;;23.93;7.33;;;;;;;;;;4871025;28;178458;-73
2021/03/02 08:49:28;;;;;;;52.87;9.70;;;;;;;;;;4871332;28;178011;-73
2021/03/02 08:51:58;;;;;;;72.57;10.90;;;;;;;;;;4868720;28;182689;-74
2021/03/02 08:54:25;;;;;;;13.03;7.83;;;;;;;;;;4869664;28;181038;-73
2021/03/02 08:57:05;;;;;;;41.27;9.63;;;;;;;;;;4869891;28;177961;-73
2021/03/02 08:59:32;;;;;;;20.20;8.50;;;;;;;;;;4871083;28;177993;-73
2021/03/02 09:01:59;;;;;;;41.87;9.33;;;;;;;;;;4865287;28;179769;-73
2021/03/02 09:04:32;;;;;;;16.67;7.60;;;;;;;;;;4874959;28;179295;-73
2021/03/02 09:07:00;;;;;;;21.17;9.47;;;;;;;;;;4863508;28;178228;-73
2021/03/02 09:09:28;;;;;;;11.90;7.47;;;;;;;;;;4871532;28;176557;-73
2021/03/02 09:11:56;;;;;;;59.73;11.47;;;;;;;;;;4870398;28;179820;-76
2021/03/02 09:14:23;;;;;;;57.43;10.57;;;;;;;;;;4869296;28;178498;-74
2021/03/02 09:17:00;;;;;;;24.83;9.40;;;;;;;;;;4865061;28;181831;-74
2021/03/02 09:19:34;;;;;;;62.83;11.13;;;;;;;;;;4872277;28;178361;-74
2021/03/02 09:22:02;;;;;;;31.10;9.20;;;;;;;;;;4885073;28;179494;-74
2021/03/02 09:24:43;;;;;;;13.90;8.10;;;;;;;;;;4885237;28;178425;-74
2021/03/02 09:27:11;;;;;;;22.50;9.10;;;;;;;;;;4887178;28;178533;-74
2021/03/02 09:29:48;;;;;;;80.13;11.30;;;;;;;;;;4887347;28;179019;-74
2021/03/02 09:32:24;;;;;;;12.83;7.67;;;;;;;;;;4885383;28;179083;-73
2021/03/02 09:35:00;;;;;;;18.60;8.37;;;;;;;;;;4885524;28;180018;-73
2021/03/02 09:37:27;;;;;;;16.47;9.17;;;;;;;;;;4886305;28;178514;-73
2021/03/02 09:40:06;;;;;;;28.23;10.87;;;;;;;;;;4867977;28;178544;-73
2021/03/02 09:42:36;;;;;;;16.70;8.10;;;;;;;;;;4863777;28;181873;-73
2021/03/02 09:45:09;;;;;;;50.20;11.33;;;;;;;;;;4866746;28;181428;-73
2021/03/02 09:47:36;;;;;;;23.57;8.53;;;;;;;;;;4867226;28;178785;-73
2021/03/02 09:50:03;;;;;;;14.17;8.17;;;;;;;;;;4866225;28;178868;-73
2021/03/02 09:52:32;;;;;;;17.53;9.47;;;;;;;;;;4866597;28;179987;-72
2021/03/02 09:55:07;;;;;;;15.13;9.40;;;;;;;;;;4873704;28;178100;-72
2021/03/02 09:57:34;;;;;;;50.37;12.00;;;;;;;;;;4864574;28;178752;-72
2021/03/02 10:00:10;;;;;;;50.90;13.77;;;;;;;;;;4867222;28;176852;-73
2021/03/02 10:02:38;;;;;;;62.60;12.67;;;;;;;;;;4865654;28;178860;-72
2021/03/02 10:05:05;;;;;;;25.50;11.87;;;;;;;;;;4869110;28;180521;-66
2021/03/02 10:07:40;;;;;;;15.90;9.40;;;;;;;;;;4879977;28;182241;-72
2021/03/02 10:10:07;;;;;;;19.00;11.67;;;;;;;;;;4871828;28;178628;-72
2021/03/02 10:12:33;;;;;;;56.00;16.03;;;;;;;;;;4879138;28;178673;-73
2021/03/02 10:15:00;;;;;;;24.40;11.90;;;;;;;;;;4879053;28;178241;-73
2021/03/02 10:17:34;;;;;;;43.63;13.60;;;;;;;;;;4871186;28;178285;-73
2021/03/02 10:20:07;;;;;;;15.93;11.10;;;;;;;;;;4884838;28;178516;-73
2021/03/02 10:22:34;;;;;;;17.87;11.23;;;;;;;;;;4864451;28;179927;-73
2021/03/02 10:25:03;;;;;;;25.83;12.57;;;;;;;;;;4865233;28;179583;-73
2021/03/02 10:27:30;;;;;;;42.63;14.07;;;;;;;;;;4865249;28;177994;-73
2021/03/02 10:29:59;;;;;;;60.40;17.33;;;;;;;;;;4877316;28;178018;-73
2021/03/02 10:32:26;;;;;;;42.10;15.63;;;;;;;;;;4881672;28;182647;-73
2021/03/02 10:34:53;;;;;;;34.73;16.47;;;;;;;;;;4884790;28;181426;-73
2021/03/02 10:37:20;;;;;;;70.43;16.33;;;;;;;;;;4885782;28;178385;-73
2021/03/02 10:39:46;;;;;;;27.80;16.27;;;;;;;;;;4885198;28;178903;-73
2021/03/02 10:42:15;;;;;;;18.60;12.90;;;;;;;;;;4880461;28;180004;-72
2021/03/02 10:44:42;;;;;;;21.63;11.33;;;;;;;;;;4873797;28;178299;-73
2021/03/02 10:47:08;;;;;;;23.57;12.23;;;;;;;;;;4886280;28;178504;-73
2021/03/02 10:49:35;;;;;;;47.10;13.87;;;;;;;;;;4888576;28;176824;-73
2021/03/02 10:52:03;;;;;;;34.73;12.77;;;;;;;;;;4886735;28;179951;-73
2021/03/02 10:54:30;;;;;;;38.17;13.60;;;;;;;;;;4883874;28;178298;-74
2021/03/02 10:56:57;;;;;;;20.53;12.80;;;;;;;;;;4867463;28;182122;-73
2021/03/02 10:59:23;;;;;;;18.77;11.30;;;;;;;;;;4868575;28;178378;-74
2021/03/02 11:01:50;;;;;;;27.50;13.30;;;;;;;;;;4867731;28;179252;-74
2021/03/02 11:04:17;;;;;;;20.40;13.27;;;;;;;;;;4868094;28;178171;-73
2021/03/02 11:06:44;;;;;;;47.70;14.53;;;;;;;;;;4868672;28;178554;-74
2021/03/02 11:09:11;;;;;;;32.03;16.07;;;;;;;;;;4867083;28;178211;-74
2021/03/02 11:11:37;;;;;;;37.67;15.13;;;;;;;;;;4867237;28;179883;-74
2021/03/02 11:14:05;;;;;;;24.10;14.70;;;;;;;;;;4867482;28;184396;-73
2021/03/02 11:16:31;;;;;;;40.07;17.93;;;;;;;;;;4867766;28;178115;-74
2021/03/02 11:18:59;;;;;;;28.07;15.30;;;;;;;;;;4868607;28;178022;-73
2021/03/02 11:21:26;;;;;;;23.83;14.27;;;;;;;;;;4865781;28;183690;-74
2021/03/02 11:23:53;;;;;;;22.77;14.33;;;;;;;;;;4866305;28;181644;-73
2021/03/02 11:26:19;;;;;;;28.03;15.37;;;;;;;;;;4868502;28;179224;-73
2021/03/02 11:28:46;;;;;;;25.70;15.37;;;;;;;;;;4867724;28;178727;-73
2021/03/02 11:31:13;;;;;;;26.23;16.27;;;;;;;;;;4866794;28;179481;-73
2021/03/02 11:33:39;;;;;;;27.77;16.40;;;;;;;;;;4868360;28;178373;-72
2021/03/02 11:36:07;;;;;;;34.40;17.27;;;;;;;;;;4867353;28;178027;-73
2021/03/02 11:38:34;;;;;;;30.27;16.40;;;;;;;;;;4867936;28;177241;-78
2021/03/02 11:41:00;;;;;;;29.07;16.63;;;;;;;;;;4868127;28;179236;-73
2021/03/02 11:43:28;;;;;;;29.90;16.53;;;;;;;;;;4867347;28;178935;-73
2021/03/02 11:45:54;;;;;;;28.33;16.43;;;;;;;;;;4865710;28;182257;-73
2021/03/02 11:48:22;;;;;;;26.70;16.70;;;;;;;;;;4865835;28;179075;-74
2021/03/02 11:50:57;;;;;;;27.87;16.57;;;;;;;;;;4864524;28;178681;-73
2021/03/02 11:53:24;;;;;;;27.00;16.20;;;;;;;;;;4865673;28;178571;-73
2021/03/02 11:55:51;;;;;;;27.80;16.90;;;;;;;;;;4866390;28;178431;-73
2021/03/02 11:58:17;;;;;;;27.80;16.70;;;;;;;;;;4865805;28;178558;-73
2021/03/02 12:00:44;;;;;;;26.93;16.93;;;;;;;;;;4866748;28;179725;-73
2021/03/02 12:03:17;;;;;;;24.93;16.40;;;;;;;;;;4865683;28;177703;-73
2021/03/02 12:05:45;;;;;;;25.20;15.30;;;;;;;;;;4866992;28;178237;-73
2021/03/02 12:08:13;;;;;;;24.07;16.30;;;;;;;;;;4866667;28;178741;-73
2021/03/02 12:10:40;;;;;;;23.67;16.37;;;;;;;;;;4863044;28;182360;-73
2021/03/02 12:13:08;;;;;;;24.70;16.63;;;;;;;;;;4865024;28;182271;-73
2021/03/02 12:15:34;;;;;;;28.27;17.03;;;;;;;;;;4867586;28;177924;-73
2021/03/02 12:18:01;;;;;;;27.77;17.60;;;;;;;;;;4868114;28;178924;-73
2021/03/02 12:20:28;;;;;;;34.50;18.57;;;;;;;;;;4867210;28;179232;-73
2021/03/02 12:22:55;;;;;;;25.50;17.37;;;;;;;;;;4864668;28;178513;-73
2021/03/02 12:25:22;;;;;;;26.13;16.80;;;;;;;;;;4867598;28;178410;-73
2021/03/02 12:27:48;;;;;;;25.57;16.83;;;;;;;;;;4866996;28;177227;-73
2021/03/02 12:30:15;;;;;;;25.10;16.50;;;;;;;;;;4867069;28;179387;-75
2021/03/02 12:32:42;;;;;;;26.77;16.60;;;;;;;;;;4866070;28;179767;-73
2021/03/02 12:35:09;;;;;;;23.07;16.30;;;;;;;;;;4866372;28;182263;-73
2021/03/02 12:37:36;;;;;;;23.43;15.27;;;;;;;;;;4866470;28;178668;-73
2021/03/02 12:40:04;;;;;;;20.20;14.13;;;;;;;;;;4865502;28;180829;-74
2021/03/02 12:42:31;;;;;;;20.67;14.47;;;;;;;;;;4855479;28;178396;-73
2021/03/02 12:44:58;;;;;;;21.23;14.13;;;;;;;;;;4864823;28;178910;-73
2021/03/02 12:47:25;;;;;;;23.00;15.70;;;;;;;;;;4865535;28;178319;-73
2021/03/02 12:49:52;;;;;;;25.40;16.30;;;;;;;;;;4866850;28;179785;-73
2021/03/02 12:52:18;;;;;;;21.83;15.10;;;;;;;;;;4866066;28;178313;-73
2021/03/02 12:54:46;;;;;;;24.13;15.57;;;;;;;;;;4867418;28;177955;-73
2021/03/02 12:57:13;;;;;;;27.10;16.03;;;;;;;;;;4866494;28;178013;-73
2021/03/02 12:59:40;;;;;;;23.80;15.10;;;;;;;;;;4862584;28;182683;-73
2021/03/02 13:02:08;;;;;;;21.60;15.17;;;;;;;;;;4865174;28;182224;-73
2021/03/02 13:04:36;;;;;;;25.57;15.60;;;;;;;;;;4862933;28;179150;-74
2021/03/02 13:07:03;;;;;;;22.03;14.60;;;;;;;;;;4848566;28;180609;-73
2021/03/02 13:09:30;;;;;;;21.90;14.87;;;;;;;;;;4854160;28;180203;-73
2021/03/02 13:11:57;;;;;;;20.00;14.30;;;;;;;;;;4851495;28;178503;-72
2021/03/02 13:14:24;;;;;;;22.13;14.47;;;;;;;;;;4852921;28;179470;-75
2021/03/02 13:16:51;;;;;;;21.50;14.73;;;;;;;;;;4857175;28;177031;-73
2021/03/02 13:19:18;;;;;;;23.33;15.30;;;;;;;;;;4858139;28;179331;-73
2021/03/02 13:22:01;;;;;;;20.40;13.30;;;;;;;;;;4866056;28;179907;-73
2021/03/02 13:24:27;;;;;;;20.40;13.47;;;;;;;;;;4885414;28;181903;-73
2021/03/02 13:26:55;;;;;;;21.20;14.27;;;;;;;;;;4869212;28;178846;-73
2021/03/02 13:29:23;;;;;;;21.13;14.20;;;;;;;;;;4866286;28;180396;-72
2021/03/02 13:31:50;;;;;;;20.60;13.07;;;;;;;;;;4855723;28;180836;-71
2021/03/02 13:34:18;;;;;;;26.20;13.73;;;;;;;;;;4862192;28;178922;-72
2021/03/02 13:36:46;;;;;;;19.77;13.47;;;;;;;;;;4856937;28;177968;-71
2021/03/02 13:39:16;;;;;;;18.87;12.13;;;;;;;;;;4863027;28;178809;-71
2021/03/02 13:41:44;;;;;;;17.60;12.10;;;;;;;;;;4856209;28;180771;-70
2021/03/02 13:44:12;;;;;;;16.77;12.00;;;;;;;;;;4857322;28;179000;-71
2021/03/02 13:46:46;;;;;;;18.87;11.90;;;;;;;;;;4858151;28;181467;-71
2021/03/02 13:49:17;;;;;;;17.33;11.67;;;;;;;;;;4850439;28;182595;-71
2021/03/02 13:51:44;;;;;;;15.07;11.03;;;;;;;;;;4861949;28;181769;-71
2021/03/02 13:54:11;;;;;;;18.67;13.83;;;;;;;;;;4867459;28;178042;-71
2021/03/02 13:56:39;;;;;;;17.67;12.93;;;;;;;;;;4858463;28;178434;-71
2021/03/02 13:59:05;;;;;;;18.10;12.97;;;;;;;;;;4855949;28;180638;-71
2021/03/02 14:01:36;;;;;;;14.30;9.93;;;;;;;;;;4865515;28;180156;-71
2021/03/02 14:04:04;;;;;;;15.33;11.77;;;;;;;;;;4860674;28;178249;-71
2021/03/02 14:06:38;;;;;;;14.60;10.83;;;;;;;;;;4866486;28;176874;-71
2021/03/02 14:09:05;;;;;;;13.03;9.67;;;;;;;;;;4863370;28;179302;-71
2021/03/02 14:11:32;;;;;;;13.57;10.03;;;;;;;;;;4857378;28;181720;-71
2021/03/02 14:14:02;;;;;;;14.23;10.23;;;;;;;;;;4861837;28;182365;-71
2021/03/02 14:16:28;;;;;;;13.20;9.90;;;;;;;;;;4865095;28;177939;-71
2021/03/02 14:18:56;;;;;;;14.63;10.20;;;;;;;;;;4858077;28;178911;-71